Time;durP1;ratioP1;P1;durP2;ratioP2;P2;SDS_P1;SDS_P2;PMS_P1;PMS_P2;Temp;Humidity;BMP_temperature;BMP_pressure;BME280_temperature;BME280_humidity;BME280_pressure;Samples;Min_cycle;Max_cycle;Signal;HPM_P1;HPM_P2
2022/11/24 00:01:07;;;;;;;;;;;5.80;99.90;;;;;;5106091;28;1090;-71
2022/11/24 00:03:35;;;;;;;;;;;5.80;99.90;;;;;;5103694;28;1280;-72
2022/11/24 00:06:04;;;;;;;;;;;5.80;99.90;;;;;;5107428;28;1051;-71
2022/11/24 00:08:33;;;;;;;;;;;5.90;99.90;;;;;;5106040;28;1314;-71
2022/11/24 00:11:04;;;;;;;;;;;5.90;99.90;;;;;;5094963;28;1122;-71
2022/11/24 00:13:32;;;;;;;;;;;5.80;99.90;;;;;;5103361;28;1416;-72
2022/11/24 00:16:06;;;;;;;;;;;5.80;99.90;;;;;;5102951;28;1012;-71
2022/11/24 00:18:34;;;;;;;;;;;5.80;99.90;;;;;;5107154;28;1060;-71
2022/11/24 00:21:02;;;;;;;;;;;6.10;99.90;;;;;;5103699;28;1941;-70
2022/11/24 00:23:29;;;;;;;;;;;5.80;99.90;;;;;;5103691;28;1330;-70
2022/11/24 00:26:03;;;;;;;;;;;5.90;99.90;;;;;;5103864;28;1047;-70
2022/11/24 00:28:31;;;;;;;;;;;5.80;99.90;;;;;;5107380;28;1163;-70
2022/11/24 00:30:59;;;;;;;;;;;5.80;99.90;;;;;;5107773;28;1134;-72
2022/11/24 00:33:27;;;;;;;;;;;5.80;99.90;;;;;;5106919;28;1254;-70
2022/11/24 00:35:55;;;;;;;;;;;5.90;99.90;;;;;;5103897;28;989;-70
2022/11/24 00:38:23;;;;;;;;;;;5.80;99.90;;;;;;5095630;28;1201;-70
2022/11/24 00:40:51;;;;;;;;;;;5.80;99.90;;;;;;5105371;28;1906;-70
2022/11/24 00:43:20;;;;;;;;;;;5.80;99.90;;;;;;5096716;28;1250;-70
2022/11/24 00:45:47;;;;;;;;;;;5.80;99.90;;;;;;5101877;28;1100;-69
2022/11/24 00:48:15;;;;;;;;;;;5.80;99.90;;;;;;5104240;28;1060;-69
2022/11/24 00:50:42;;;;;;;;;;;5.80;99.90;;;;;;5095954;28;1483;-69
2022/11/24 00:53:10;;;;;;;;;;;5.80;99.90;;;;;;5097939;28;1358;-70
2022/11/24 00:55:38;;;;;;;;;;;6.00;99.90;;;;;;5098417;28;1465;-69
2022/11/24 00:58:05;;;;;;;;;;;5.80;99.90;;;;;;5097022;28;1714;-68
2022/11/24 01:00:34;;;;;;;;;;;5.80;99.90;;;;;;5102288;28;1991;-70
2022/11/24 01:03:02;;;;;;;;;;;5.90;99.90;;;;;;5095441;28;1266;-70
2022/11/24 01:05:29;;;;;;;;;;;5.80;99.90;;;;;;5101119;28;1552;-70
2022/11/24 01:07:57;;;;;;;;;;;5.80;99.90;;;;;;5100177;28;1039;-69
2022/11/24 01:10:24;;;;;;;;;;;5.70;99.90;;;;;;5104430;28;1019;-70
2022/11/24 01:12:52;;;;;;;;;;;5.80;99.90;;;;;;5102011;28;1370;-70
2022/11/24 01:15:20;;;;;;;;;;;6.00;99.90;;;;;;5094740;28;1863;-70
2022/11/24 01:17:49;;;;;;;;;;;5.80;99.90;;;;;;5097740;28;1071;-70
2022/11/24 01:20:17;;;;;;;;;;;5.80;99.90;;;;;;5106296;28;1910;-69
2022/11/24 01:22:44;;;;;;;;;;;5.80;99.90;;;;;;5114482;28;1301;-69
2022/11/24 01:25:12;;;;;;;;;;;5.80;99.90;;;;;;5098770;28;1291;-69
2022/11/24 01:27:39;;;;;;;;;;;5.90;99.90;;;;;;5100027;28;1104;-69
2022/11/24 01:30:07;;;;;;;;;;;5.80;99.90;;;;;;5098047;28;1008;-69
2022/11/24 01:32:36;;;;;;;;;;;5.80;99.90;;;;;;5105223;28;1370;-68
2022/11/24 01:35:05;;;;;;;;;;;5.90;99.90;;;;;;5106389;28;1101;-69
2022/11/24 01:37:33;;;;;;;;;;;5.80;99.90;;;;;;5099105;28;1079;-68
2022/11/24 01:40:01;;;;;;;;;;;5.80;99.90;;;;;;5099094;28;1914;-69
2022/11/24 01:42:36;;;;;;;;;;;5.90;99.90;;;;;;5111339;28;1685;-71
2022/11/24 01:45:22;;;;;;;;;;;5.90;99.90;;;;;;5104941;28;1511;-69
2022/11/24 01:47:50;;;;;;;;;;;5.90;99.90;;;;;;5106747;28;2086;-70
2022/11/24 01:50:20;;;;;;;;;;;6.10;99.90;;;;;;5100829;28;2264;-69
2022/11/24 01:52:48;;;;;;;;;;;5.70;99.90;;;;;;5103143;28;2093;-72
2022/11/24 01:55:18;;;;;;;;;;;5.80;99.90;;;;;;5108098;28;1342;-71
2022/11/24 01:57:48;;;;;;;;;;;6.00;99.90;;;;;;5106452;28;2292;-71
2022/11/24 02:00:17;;;;;;;;;;;6.10;99.90;;;;;;5108110;28;1914;-71
2022/11/24 02:02:45;;;;;;;;;;;5.90;99.90;;;;;;5104996;28;1281;-70
2022/11/24 02:05:15;;;;;;;;;;;5.90;99.90;;;;;;5098529;28;1364;-73
2022/11/24 02:07:44;;;;;;;;;;;6.00;99.90;;;;;;5109432;28;1012;-71
2022/11/24 02:10:13;;;;;;;;;;;6.00;99.90;;;;;;5118465;28;1013;-71
2022/11/24 02:12:42;;;;;;;;;;;5.90;99.90;;;;;;5101919;28;1360;-71
2022/11/24 02:17:45;;;;;;;;;;;6.00;99.90;;;;;;5414573;22;1801;-87
2022/11/24 02:20:14;;;;;;;;;;;5.90;99.90;;;;;;5040460;28;1997;-88
2022/11/24 02:22:44;;;;;;;;;;;5.90;99.90;;;;;;5031459;28;1710;-87
2022/11/24 02:25:17;;;;;;;;;;;5.90;99.90;;;;;;5030932;28;1698;-88
2022/11/24 02:27:46;;;;;;;;;;;6.00;99.90;;;;;;5028469;28;1388;-86
2022/11/24 02:30:20;;;;;;;;;;;6.00;99.90;;;;;;5041726;28;1080;-88
2022/11/24 02:32:48;;;;;;;;;;;6.00;99.90;;;;;;5028167;28;973;-85
2022/11/24 02:35:16;;;;;;;;;;;6.00;99.90;;;;;;5036382;28;1710;-87
2022/11/24 02:37:43;;;;;;;;;;;6.00;99.90;;;;;;5035910;28;1191;-88
2022/11/24 02:40:14;;;;;;;;;;;5.90;99.90;;;;;;5035096;28;1914;-86
2022/11/24 02:42:44;;;;;;;;;;;5.90;99.90;;;;;;5033953;28;1587;-86
2022/11/24 02:45:15;;;;;;;;;;;5.90;99.90;;;;;;5021184;28;1573;-87
2022/11/24 02:47:44;;;;;;;;;;;5.80;99.90;;;;;;5020775;28;1088;-90
2022/11/24 02:50:11;;;;;;;;;;;5.70;99.90;;;;;;5021318;28;1013;-88
2022/11/24 02:52:39;;;;;;;;;;;5.90;99.90;;;;;;5020305;28;1515;-90
2022/11/24 02:55:07;;;;;;;;;;;5.60;99.90;;;;;;5022129;28;1021;-90
2022/11/24 02:57:35;;;;;;;;;;;5.50;99.90;;;;;;5036248;28;1538;-89
2022/11/24 03:00:03;;;;;;;;;;;5.60;99.90;;;;;;5038857;28;1177;-89
2022/11/24 03:02:32;;;;;;;;;;;5.40;99.90;;;;;;5027845;28;1977;-89
2022/11/24 03:05:00;;;;;;;;;;;5.40;99.90;;;;;;5039915;28;1033;-90
2022/11/24 03:07:27;;;;;;;;;;;5.40;99.90;;;;;;5040547;28;930;-88
2022/11/24 03:09:55;;;;;;;;;;;5.40;99.90;;;;;;5022312;28;1555;-89
2022/11/24 03:12:23;;;;;;;;;;;5.60;99.90;;;;;;5019252;28;1670;-91
2022/11/24 03:14:51;;;;;;;;;;;5.30;99.90;;;;;;5026143;28;1575;-89
2022/11/24 03:17:18;;;;;;;;;;;5.40;99.90;;;;;;5028941;28;1585;-90
2022/11/24 03:19:47;;;;;;;;;;;5.60;99.90;;;;;;5041336;28;1178;-88
2022/11/24 03:22:15;;;;;;;;;;;5.40;99.90;;;;;;5040154;28;1973;-88
2022/11/24 03:24:43;;;;;;;;;;;5.30;99.90;;;;;;5040248;28;1578;-89
2022/11/24 03:27:11;;;;;;;;;;;5.20;99.90;;;;;;5041605;28;1277;-87
2022/11/24 03:29:38;;;;;;;;;;;5.20;99.90;;;;;;5040608;28;1539;-88
2022/11/24 03:32:06;;;;;;;;;;;5.50;99.90;;;;;;5039943;28;985;-87
2022/11/24 03:34:34;;;;;;;;;;;5.20;99.90;;;;;;5021357;28;990;-87
2022/11/24 03:37:03;;;;;;;;;;;5.30;99.90;;;;;;5019742;28;997;-87
2022/11/24 03:39:31;;;;;;;;;;;5.30;99.90;;;;;;5034348;28;1602;-89
2022/11/24 03:41:59;;;;;;;;;;;5.40;99.90;;;;;;5038781;28;1985;-88
2022/11/24 03:44:26;;;;;;;;;;;5.40;99.90;;;;;;5044015;28;1061;-88
2022/11/24 03:46:54;;;;;;;;;;;5.50;99.90;;;;;;5033254;28;1611;-90
2022/11/24 03:49:22;;;;;;;;;;;5.60;99.90;;;;;;5022457;28;1400;-88
2022/11/24 03:51:49;;;;;;;;;;;5.70;99.90;;;;;;5032739;28;1036;-88
2022/11/24 03:54:19;;;;;;;;;;;5.80;99.90;;;;;;5042200;28;981;-89
2022/11/24 03:56:46;;;;;;;;;;;5.80;99.90;;;;;;5024033;28;1666;-89
2022/11/24 03:59:14;;;;;;;;;;;5.70;99.90;;;;;;5030195;28;1668;-89
2022/11/24 04:01:42;;;;;;;;;;;6.00;99.90;;;;;;5027171;28;1887;-88
2022/11/24 04:04:10;;;;;;;;;;;5.80;99.90;;;;;;5036115;28;1137;-89
2022/11/24 04:06:38;;;;;;;;;;;5.90;99.90;;;;;;5028382;28;1568;-89
2022/11/24 04:09:06;;;;;;;;;;;5.90;99.90;;;;;;5023968;28;1510;-89
2022/11/24 04:14:20;;;;;;;;;;;5.90;99.90;;;;;;5027010;28;1021;-89
2022/11/24 04:16:48;;;;;;;;;;;5.90;99.90;;;;;;5044376;28;1064;-88
2022/11/24 04:19:15;;;;;;;;;;;5.90;99.90;;;;;;5058296;28;1710;-87
2022/11/24 04:21:43;;;;;;;;;;;6.00;99.90;;;;;;5057863;28;1883;-89
2022/11/24 04:24:11;;;;;;;;;;;6.10;99.90;;;;;;5055071;28;1096;-88
2022/11/24 04:26:40;;;;;;;;;;;6.00;99.90;;;;;;5040658;28;1590;-87
2022/11/24 04:29:09;;;;;;;;;;;6.10;99.90;;;;;;5019687;28;1189;-89
2022/11/24 04:31:36;;;;;;;;;;;6.10;99.90;;;;;;5030585;28;1583;-87
2022/11/24 04:34:04;;;;;;;;;;;6.10;99.90;;;;;;5020696;28;993;-88
2022/11/24 04:36:32;;;;;;;;;;;6.10;99.90;;;;;;5019705;28;1290;-88
2022/11/24 04:38:59;;;;;;;;;;;6.00;99.90;;;;;;5019180;28;1533;-88
2022/11/24 04:41:48;;;;;;;;;;;6.00;99.90;;;;;;5018548;28;1903;-86
2022/11/24 04:44:16;;;;;;;;;;;6.10;99.90;;;;;;5019065;28;1546;-87
2022/11/24 04:46:44;;;;;;;;;;;6.20;99.90;;;;;;5018259;28;1192;-87
2022/11/24 04:49:12;;;;;;;;;;;6.20;99.90;;;;;;5018970;28;1240;-87
2022/11/24 04:51:39;;;;;;;;;;;6.30;99.90;;;;;;5039094;28;1648;-87
2022/11/24 04:54:09;;;;;;;;;;;6.30;99.90;;;;;;5027517;28;1522;-89
2022/11/24 04:56:37;;;;;;;;;;;6.30;99.90;;;;;;5020508;28;1403;-90
2022/11/24 04:59:06;;;;;;;;;;;6.30;99.90;;;;;;5020529;28;1643;-90
2022/11/24 05:01:35;;;;;;;;;;;6.30;99.90;;;;;;5021179;28;1969;-90
2022/11/24 05:04:03;;;;;;;;;;;6.30;99.90;;;;;;5021535;28;1061;-89
2022/11/24 05:06:32;;;;;;;;;;;6.40;99.90;;;;;;5019871;28;1662;-89
2022/11/24 05:08:59;;;;;;;;;;;6.40;99.90;;;;;;5030661;28;1585;-89
2022/11/24 05:11:27;;;;;;;;;;;6.30;99.90;;;;;;5022158;28;1045;-89
2022/11/24 05:13:55;;;;;;;;;;;6.30;99.90;;;;;;5023145;28;1544;-88
2022/11/24 05:16:24;;;;;;;;;;;6.30;99.90;;;;;;5036052;28;1642;-89
2022/11/24 05:18:51;;;;;;;;;;;6.40;99.90;;;;;;5030027;28;1252;-90
2022/11/24 05:21:19;;;;;;;;;;;6.30;99.90;;;;;;5042293;28;1044;-90
2022/11/24 05:23:47;;;;;;;;;;;6.30;99.90;;;;;;5043074;28;1981;-90
2022/11/24 05:26:14;;;;;;;;;;;6.30;99.90;;;;;;5040077;28;1585;-91
2022/11/24 05:28:42;;;;;;;;;;;6.40;99.90;;;;;;5024204;28;1520;-89
2022/11/24 05:31:10;;;;;;;;;;;6.50;99.90;;;;;;5027852;28;1034;-90
2022/11/24 05:33:39;;;;;;;;;;;6.50;99.90;;;;;;5039177;28;1561;-89
2022/11/24 05:36:07;;;;;;;;;;;6.50;99.90;;;;;;5024458;28;1412;-88
2022/11/24 05:38:35;;;;;;;;;;;6.50;99.90;;;;;;5028279;28;1362;-88
2022/11/24 05:41:03;;;;;;;;;;;6.40;99.90;;;;;;5032145;28;1002;-88
2022/11/24 05:43:31;;;;;;;;;;;6.20;99.90;;;;;;5028462;28;1915;-87
2022/11/24 05:45:59;;;;;;;;;;;6.10;99.90;;;;;;5026274;28;1085;-87
2022/11/24 05:48:27;;;;;;;;;;;6.10;99.90;;;;;;5032905;28;1489;-88
2022/11/24 05:50:57;;;;;;;;;;;6.00;99.90;;;;;;5023842;28;1013;-89
2022/11/24 05:53:25;;;;;;;;;;;6.20;99.90;;;;;;5018777;28;1082;-88
2022/11/24 05:55:53;;;;;;;;;;;6.00;99.90;;;;;;5028665;28;1056;-87
2022/11/24 05:58:21;;;;;;;;;;;6.10;99.90;;;;;;5039015;28;1751;-88
2022/11/24 06:00:50;;;;;;;;;;;6.00;99.90;;;;;;5027461;28;1020;-89
2022/11/24 06:03:18;;;;;;;;;;;6.20;99.90;;;;;;5022940;28;1996;-88
2022/11/24 06:05:46;;;;;;;;;;;6.10;99.90;;;;;;5021268;28;1060;-89
2022/11/24 06:08:17;;;;;;;;;;;6.10;99.90;;;;;;5030464;28;1723;-88
2022/11/24 06:10:44;;;;;;;;;;;6.30;99.90;;;;;;5031314;28;1634;-85
2022/11/24 06:13:12;;;;;;;;;;;6.40;99.90;;;;;;5022758;28;1691;-86
2022/11/24 06:15:40;;;;;;;;;;;6.50;99.90;;;;;;5022160;28;1863;-87
2022/11/24 06:18:10;;;;;;;;;;;6.60;99.90;;;;;;5021901;28;1705;-86
2022/11/24 06:20:38;;;;;;;;;;;6.60;99.90;;;;;;5023557;28;1307;-89
2022/11/24 06:23:10;;;;;;;;;;;6.50;99.90;;;;;;5022931;28;1976;-86
2022/11/24 06:25:41;;;;;;;;;;;6.50;99.90;;;;;;5022316;28;1072;-85
2022/11/24 06:28:15;;;;;;;;;;;6.50;99.90;;;;;;5022526;28;1536;-87
2022/11/24 06:30:42;;;;;;;;;;;6.50;99.90;;;;;;5022685;28;1600;-88
2022/11/24 06:33:10;;;;;;;;;;;6.50;99.90;;;;;;5028789;28;1586;-86
2022/11/24 06:35:38;;;;;;;;;;;6.40;99.90;;;;;;5041339;28;1037;-88
2022/11/24 06:38:06;;;;;;;;;;;6.60;99.90;;;;;;5037155;28;1327;-88
2022/11/24 06:40:34;;;;;;;;;;;6.50;99.90;;;;;;5023073;28;1425;-87
2022/11/24 06:43:03;;;;;;;;;;;6.40;99.90;;;;;;5032280;28;1894;-89
2022/11/24 06:45:30;;;;;;;;;;;6.70;99.90;;;;;;5044971;28;1069;-87
2022/11/24 06:47:58;;;;;;;;;;;6.50;99.90;;;;;;5039519;28;1256;-86
2022/11/24 06:50:26;;;;;;;;;;;6.50;99.90;;;;;;5043107;28;1093;-88
2022/11/24 06:53:01;;;;;;;;;;;6.40;99.90;;;;;;5028163;28;1374;-89
2022/11/24 06:55:37;;;;;;;;;;;6.40;99.90;;;;;;5040107;28;1071;-89
2022/11/24 06:58:06;;;;;;;;;;;6.20;99.90;;;;;;5023254;28;1332;-91
2022/11/24 07:00:34;;;;;;;;;;;6.10;99.90;;;;;;5029464;28;1698;-89
2022/11/24 07:03:05;;;;;;;;;;;6.00;99.90;;;;;;5030563;28;1968;-88
2022/11/24 07:05:42;;;;;;;;;;;6.00;99.90;;;;;;5054402;28;1175;-90
2022/11/24 07:08:10;;;;;;;;;;;6.00;99.90;;;;;;5051481;28;1529;-89
2022/11/24 07:10:44;;;;;;;;;;;5.80;99.90;;;;;;5046306;28;1033;-90
2022/11/24 07:13:13;;;;;;;;;;;6.00;99.90;;;;;;5044486;28;1207;-88
2022/11/24 07:15:41;;;;;;;;;;;5.80;99.90;;;;;;5044654;28;1501;-89
2022/11/24 07:18:09;;;;;;;;;;;5.70;99.90;;;;;;5042128;28;1343;-91
2022/11/24 07:20:37;;;;;;;;;;;5.90;99.90;;;;;;5039650;28;1522;-89
2022/11/24 07:23:10;;;;;;;;;;;5.80;99.90;;;;;;5028492;28;1883;-90
2022/11/24 07:25:38;;;;;;;;;;;5.80;99.90;;;;;;5023254;28;1511;-89
2022/11/24 07:28:05;;;;;;;;;;;5.80;99.90;;;;;;5041004;28;1577;-91
2022/11/24 07:30:34;;;;;;;;;;;5.70;99.90;;;;;;5040707;28;1541;-90
2022/11/24 07:33:03;;;;;;;;;;;5.60;99.90;;;;;;5029951;28;1902;-87
2022/11/24 07:35:31;;;;;;;;;;;5.70;99.90;;;;;;5029998;28;2659;-86
2022/11/24 07:37:59;;;;;;;;;;;5.80;99.90;;;;;;5023369;28;1359;-86
2022/11/24 07:40:26;;;;;;;;;;;5.60;99.90;;;;;;5034474;28;1477;-86
2022/11/24 07:42:54;;;;;;;;;;;5.50;99.90;;;;;;5029773;28;1995;-89
2022/11/24 07:45:22;;;;;;;;;;;5.50;99.90;;;;;;5019012;28;1054;-87
2022/11/24 07:47:51;;;;;;;;;;;5.50;99.90;;;;;;5018175;28;1347;-86
2022/11/24 07:50:19;;;;;;;;;;;5.50;99.90;;;;;;5018114;28;2462;-87
2022/11/24 07:52:47;;;;;;;;;;;5.50;99.90;;;;;;5018342;28;1529;-87
2022/11/24 07:55:15;;;;;;;;;;;5.50;99.90;;;;;;5020088;28;1040;-85
2022/11/24 07:57:42;;;;;;;;;;;5.60;99.90;;;;;;5033777;28;1666;-86
2022/11/24 08:00:11;;;;;;;;;;;5.50;99.90;;;;;;5035837;28;1568;-87
2022/11/24 08:02:39;;;;;;;;;;;5.60;99.90;;;;;;5035865;28;1705;-86
2022/11/24 08:05:13;;;;;;;;;;;5.50;99.90;;;;;;5027532;28;1993;-86
2022/11/24 08:07:41;;;;;;;;;;;5.60;99.90;;;;;;5033179;28;1340;-87
2022/11/24 08:10:09;;;;;;;;;;;5.60;99.90;;;;;;5038903;28;1545;-86
2022/11/24 08:12:38;;;;;;;;;;;5.60;99.90;;;;;;5036624;28;1735;-86
2022/11/24 08:15:09;;;;;;;;;;;5.60;99.90;;;;;;5033461;28;1080;-86
2022/11/24 08:17:38;;;;;;;;;;;5.70;99.90;;;;;;5035866;28;1589;-85
2022/11/24 08:20:07;;;;;;;;;;;5.70;99.90;;;;;;5032464;28;1209;-88
2022/11/24 08:22:50;;;;;;;;;;;5.90;99.90;;;;;;5018236;28;1065;-87
2022/11/24 08:25:19;;;;;;;;;;;6.00;99.90;;;;;;5028579;28;1906;-87
2022/11/24 08:27:47;;;;;;;;;;;6.10;99.90;;;;;;5034070;28;1379;-86
2022/11/24 08:30:15;;;;;;;;;;;6.40;99.90;;;;;;5034307;28;1630;-86
2022/11/24 08:32:45;;;;;;;;;;;6.40;99.90;;;;;;5036258;28;1718;-85
2022/11/24 08:35:27;;;;;;;;;;;6.40;99.90;;;;;;5028523;28;929;-87
2022/11/24 08:37:55;;;;;;;;;;;6.50;99.90;;;;;;5033199;28;1906;-87
2022/11/24 08:40:31;;;;;;;;;;;6.50;99.90;;;;;;5019560;28;1386;-87
2022/11/24 08:42:59;;;;;;;;;;;6.60;99.90;;;;;;5019309;28;1558;-87
2022/11/24 08:45:28;;;;;;;;;;;6.80;99.90;;;;;;5018737;28;1911;-87
2022/11/24 08:47:57;;;;;;;;;;;6.70;99.90;;;;;;5023597;28;1539;-87
2022/11/24 08:50:27;;;;;;;;;;;6.80;99.90;;;;;;5018229;28;1033;-87
2022/11/24 08:52:54;;;;;;;;;;;6.90;99.90;;;;;;5022476;28;1045;-87
2022/11/24 08:55:23;;;;;;;;;;;7.00;99.90;;;;;;5018705;28;1406;-86
2022/11/24 08:57:59;;;;;;;;;;;7.00;99.90;;;;;;5032558;28;1415;-86
2022/11/24 09:00:26;;;;;;;;;;;7.00;99.90;;;;;;5025101;28;1549;-87
2022/11/24 09:02:57;;;;;;;;;;;7.00;99.90;;;;;;5032049;28;1562;-84
2022/11/24 09:05:25;;;;;;;;;;;7.10;99.90;;;;;;5025965;28;1895;-85
2022/11/24 09:08:13;;;;;;;;;;;7.20;99.90;;;;;;5034529;28;1829;-86
2022/11/24 09:10:43;;;;;;;;;;;7.30;99.90;;;;;;5025247;28;1560;-85
2022/11/24 09:13:12;;;;;;;;;;;7.30;99.90;;;;;;5032568;28;1620;-86
2022/11/24 09:15:39;;;;;;;;;;;7.30;99.90;;;;;;5027689;28;970;-85
2022/11/24 09:18:07;;;;;;;;;;;7.40;99.90;;;;;;5046863;28;1664;-84
2022/11/24 09:20:35;;;;;;;;;;;7.50;99.90;;;;;;5043911;28;1536;-86
2022/11/24 09:23:02;;;;;;;;;;;7.50;99.90;;;;;;5029726;28;1596;-85
2022/11/24 09:25:30;;;;;;;;;;;7.50;99.90;;;;;;5015828;28;1914;-87
2022/11/24 09:27:58;;;;;;;;;;;7.50;99.90;;;;;;5016333;28;1866;-89
2022/11/24 09:30:27;;;;;;;;;;;7.60;99.90;;;;;;5016222;28;1654;-87
2022/11/24 09:32:55;;;;;;;;;;;7.80;99.90;;;;;;5017941;28;1611;-88
2022/11/24 09:35:23;;;;;;;;;;;7.80;99.90;;;;;;5020992;28;1431;-87
2022/11/24 09:37:51;;;;;;;;;;;7.80;99.90;;;;;;5020212;28;1343;-86
2022/11/24 09:40:21;;;;;;;;;;;7.80;99.90;;;;;;5023770;28;1577;-86
2022/11/24 09:42:53;;;;;;;;;;;8.10;99.90;;;;;;5024423;28;1552;-89
2022/11/24 09:45:26;;;;;;;;;;;8.00;99.90;;;;;;5022816;28;1907;-85
2022/11/24 09:48:23;;;;;;;;;;;8.00;99.90;;;;;;5022017;28;1560;-88
2022/11/24 09:50:52;;;;;;;;;;;8.10;99.90;;;;;;5022390;28;1350;-86
2022/11/24 09:53:24;;;;;;;;;;;8.20;99.90;;;;;;5023921;28;1663;-88
2022/11/24 09:55:54;;;;;;;;;;;8.30;99.90;;;;;;5032328;28;966;-88
2022/11/24 10:01:19;;;;;;;;;;;8.30;99.90;;;;;;5003482;28;1485;-86
2022/11/24 10:03:50;;;;;;;;;;;8.50;99.90;;;;;;5002019;28;1382;-86
2022/11/24 10:06:20;;;;;;;;;;;8.60;99.90;;;;;;5038152;28;1902;-85
2022/11/24 10:08:56;;;;;;;;;;;8.60;99.90;;;;;;5041780;28;1245;-84
2022/11/24 10:11:30;;;;;;;;;;;8.70;99.90;;;;;;5041274;28;1294;-87
2022/11/24 10:14:07;;;;;;;;;;;8.60;99.90;;;;;;5037552;28;1567;-86
2022/11/24 10:16:42;;;;;;;;;;;8.60;99.90;;;;;;5044720;28;1515;-85
2022/11/24 10:19:20;;;;;;;;;;;8.70;99.90;;;;;;5023731;28;1304;-85
2022/11/24 10:21:55;;;;;;;;;;;8.70;99.90;;;;;;5024820;28;1006;-86
2022/11/24 10:24:41;;;;;;;;;;;8.80;99.90;;;;;;5034840;28;1883;-86
2022/11/24 10:27:15;;;;;;;;;;;9.00;99.90;;;;;;5030392;28;1722;-86
2022/11/24 10:29:43;;;;;;;;;;;9.10;99.90;;;;;;5034466;28;1572;-86
2022/11/24 10:32:15;;;;;;;;;;;9.20;99.90;;;;;;5028906;28;1692;-87
2022/11/24 10:34:45;;;;;;;;;;;9.30;99.90;;;;;;5031878;28;1244;-86
2022/11/24 10:37:15;;;;;;;;;;;9.30;99.90;;;;;;5030454;28;1582;-86
2022/11/24 10:39:49;;;;;;;;;;;9.30;99.80;;;;;;5035217;28;1359;-86
2022/11/24 10:42:18;;;;;;;;;;;9.30;99.80;;;;;;5041742;28;966;-86
2022/11/24 10:44:46;;;;;;;;;;;9.30;99.90;;;;;;5033619;28;1884;-85
2022/11/24 10:47:17;;;;;;;;;;;9.30;99.60;;;;;;5033083;28;1490;-87
2022/11/24 10:49:49;;;;;;;;;;;9.40;99.70;;;;;;5034668;28;1363;-88
2022/11/24 10:52:18;;;;;;;;;;;9.30;99.80;;;;;;5026695;28;985;-85
2022/11/24 10:54:56;;;;;;;;;;;9.00;99.40;;;;;;5023767;28;1080;-86
2022/11/24 10:57:27;;;;;;;;;;;9.40;99.90;;;;;;5035006;28;1517;-87
2022/11/24 10:59:55;;;;;;;;;;;9.50;99.90;;;;;;5024244;28;1294;-88
2022/11/24 11:02:27;;;;;;;;;;;9.60;99.70;;;;;;5026506;28;1537;-86
2022/11/24 11:04:56;;;;;;;;;;;9.60;99.80;;;;;;5024938;28;1953;-88
2022/11/24 11:07:26;;;;;;;;;;;9.60;99.60;;;;;;5027402;28;1559;-86
2022/11/24 11:10:12;;;;;;;;;;;9.80;99.50;;;;;;5031836;28;1513;-88
2022/11/24 11:12:40;;;;;;;;;;;9.90;99.70;;;;;;5026954;28;990;-87
2022/11/24 11:15:21;;;;;;;;;;;9.90;99.30;;;;;;5041832;28;1745;-86
2022/11/24 11:17:51;;;;;;;;;;;9.90;99.20;;;;;;5042047;28;1486;-87
2022/11/24 11:20:28;;;;;;;;;;;9.80;98.60;;;;;;5039459;28;1556;-87
2022/11/24 11:22:57;;;;;;;;;;;9.80;98.70;;;;;;5023996;28;1677;-89
2022/11/24 11:25:27;;;;;;;;;;;9.70;98.70;;;;;;5026119;28;1886;-87
2022/11/24 11:28:10;;;;;;;;;;;9.60;99.10;;;;;;5044216;28;1571;-86
2022/11/24 11:30:54;;;;;;;;;;;9.60;99.30;;;;;;5047128;28;1696;-86
2022/11/24 11:33:54;;;;;;;;;;;9.60;98.90;;;;;;5050328;28;1304;-86
2022/11/24 11:36:44;;;;;;;;;;;9.70;99.10;;;;;;5027629;28;1520;-84
2022/11/24 11:39:20;;;;;;;;;;;9.80;99.60;;;;;;5025167;28;1513;-87
2022/11/24 11:41:48;;;;;;;;;;;9.80;99.80;;;;;;5034013;28;1668;-86
2022/11/24 11:44:21;;;;;;;;;;;9.80;99.70;;;;;;5042295;28;1081;-86
2022/11/24 11:46:50;;;;;;;;;;;9.80;99.90;;;;;;5041628;28;1910;-86
2022/11/24 11:49:18;;;;;;;;;;;9.90;99.60;;;;;;5042911;28;1370;-86
2022/11/24 11:51:53;;;;;;;;;;;9.90;99.20;;;;;;5045627;28;1398;-86
2022/11/24 11:54:26;;;;;;;;;;;10.00;99.20;;;;;;5039900;28;1046;-85
2022/11/24 11:57:00;;;;;;;;;;;10.00;98.10;;;;;;5036347;28;1199;-87
2022/11/24 11:59:43;;;;;;;;;;;10.10;98.90;;;;;;5042225;28;1324;-87
2022/11/24 12:02:18;;;;;;;;;;;10.10;98.80;;;;;;5019733;28;1545;-86
2022/11/24 12:04:51;;;;;;;;;;;10.40;99.00;;;;;;5026598;28;1406;-85
2022/11/24 12:07:31;;;;;;;;;;;10.20;98.50;;;;;;5043448;28;1961;-86
2022/11/24 12:10:02;;;;;;;;;;;10.30;98.40;;;;;;5040673;28;1588;-83
2022/11/24 12:12:38;;;;;;;;;;;10.30;98.50;;;;;;5040134;28;1518;-86
2022/11/24 12:15:11;;;;;;;;;;;10.30;98.50;;;;;;5023253;28;1109;-87
2022/11/24 12:17:42;;;;;;;;;;;10.40;98.20;;;;;;5027148;28;1548;-86
2022/11/24 12:20:27;;;;;;;;;;;10.30;98.20;;;;;;5022936;28;979;-86
2022/11/24 12:23:02;;;;;;;;;;;10.40;98.40;;;;;;5011193;28;1554;-86
2022/11/24 12:25:35;;;;;;;;;;;10.30;98.10;;;;;;5020571;28;1940;-85
2022/11/24 12:28:07;;;;;;;;;;;10.30;98.30;;;;;;5024383;28;1636;-84
2022/11/24 12:30:41;;;;;;;;;;;10.30;97.50;;;;;;5039495;28;1001;-85
2022/11/24 12:33:17;;;;;;;;;;;10.50;98.50;;;;;;5037430;28;1703;-86
2022/11/24 12:35:45;;;;;;;;;;;10.30;98.00;;;;;;5042839;28;1325;-88
2022/11/24 12:38:27;;;;;;;;;;;10.30;98.00;;;;;;5039785;28;1320;-88
2022/11/24 12:41:05;;;;;;;;;;;10.40;98.10;;;;;;5046890;28;1046;-87
2022/11/24 12:43:55;;;;;;;;;;;10.50;98.30;;;;;;5038205;28;1562;-88
2022/11/24 12:46:28;;;;;;;;;;;10.50;98.00;;;;;;5022993;28;1989;-88
2022/11/24 12:49:03;;;;;;;;;;;10.50;97.30;;;;;;5023339;28;1635;-86
2022/11/24 12:51:33;;;;;;;;;;;10.60;97.00;;;;;;5034308;28;1532;-86
2022/11/24 12:54:04;;;;;;;;;;;10.60;96.50;;;;;;5034206;28;1669;-86
2022/11/24 12:56:36;;;;;;;;;;;10.60;96.50;;;;;;5043299;28;1541;-88
2022/11/24 12:59:12;;;;;;;;;;;10.60;96.10;;;;;;5041344;28;1444;-85
2022/11/24 13:01:48;;;;;;;;;;;10.90;96.70;;;;;;5039148;28;997;-86
2022/11/24 13:04:23;;;;;;;;;;;10.90;95.40;;;;;;5040512;28;1394;-87
2022/11/24 13:06:52;;;;;;;;;;;10.80;96.00;;;;;;5026988;28;1910;-85
2022/11/24 13:09:21;;;;;;;;;;;10.70;96.10;;;;;;5030422;28;1270;-86
2022/11/24 13:11:51;;;;;;;;;;;10.60;95.50;;;;;;5035187;28;1497;-85
2022/11/24 13:14:22;;;;;;;;;;;10.60;95.50;;;;;;5041035;28;1516;-85
2022/11/24 13:16:58;;;;;;;;;;;10.70;96.00;;;;;;5042195;28;1001;-85
2022/11/24 13:19:46;;;;;;;;;;;10.60;95.40;;;;;;5033706;28;1295;-85
2022/11/24 13:22:16;;;;;;;;;;;10.60;94.30;;;;;;5032113;28;1519;-86
2022/11/24 13:25:02;;;;;;;;;;;10.60;94.60;;;;;;5035076;28;1298;-87
2022/11/24 13:27:41;;;;;;;;;;;10.50;93.70;;;;;;5030301;28;1896;-84
2022/11/24 13:30:27;;;;;;;;;;;10.50;94.00;;;;;;5024451;28;1533;-87
2022/11/24 13:33:00;;;;;;;;;;;10.60;94.20;;;;;;5033964;28;990;-87
2022/11/24 13:35:28;;;;;;;;;;;10.50;93.60;;;;;;5024735;28;1290;-88
2022/11/24 13:37:56;;;;;;;;;;;10.30;93.40;;;;;;5031766;28;1224;-88
2022/11/24 13:40:42;;;;;;;;;;;10.70;93.10;;;;;;5026814;28;1580;-88
2022/11/24 13:43:58;;;;;;;;;;;10.60;93.70;;;;;;5043050;28;1542;-86
2022/11/24 13:46:41;;;;;;;;;;;10.60;93.50;;;;;;5049814;28;1960;-85
2022/11/24 13:49:13;;;;;;;;;;;10.50;93.50;;;;;;5039935;28;1288;-86
2022/11/24 13:51:41;;;;;;;;;;;10.50;94.10;;;;;;5048978;28;1001;-88
2022/11/24 13:54:10;;;;;;;;;;;10.50;93.40;;;;;;5038813;28;1702;-85
2022/11/24 13:56:39;;;;;;;;;;;10.80;93.90;;;;;;5044325;28;1725;-86
2022/11/24 13:59:15;;;;;;;;;;;10.50;94.00;;;;;;5036580;28;1536;-86
2022/11/24 14:01:45;;;;;;;;;;;10.40;93.80;;;;;;5042979;28;1395;-87
2022/11/24 14:04:18;;;;;;;;;;;10.50;93.70;;;;;;5043049;28;1537;-88
2022/11/24 14:06:59;;;;;;;;;;;10.40;94.20;;;;;;5052714;28;1891;-85
2022/11/24 14:09:36;;;;;;;;;;;10.40;93.80;;;;;;5038960;28;1292;-89
2022/11/24 14:12:12;;;;;;;;;;;10.40;94.00;;;;;;5053170;28;1584;-88
2022/11/24 14:14:40;;;;;;;;;;;10.40;94.00;;;;;;5047292;28;1879;-86
2022/11/24 14:17:14;;;;;;;;;;;10.40;93.80;;;;;;5043711;28;1513;-87
2022/11/24 14:19:42;;;;;;;;;;;10.50;94.40;;;;;;5034565;28;1320;-87
2022/11/24 14:22:15;;;;;;;;;;;10.40;93.90;;;;;;5039042;28;970;-87
2022/11/24 14:24:43;;;;;;;;;;;10.40;94.20;;;;;;5034289;28;1045;-86
2022/11/24 14:27:16;;;;;;;;;;;10.40;94.00;;;;;;5052163;28;1887;-84
2022/11/24 14:29:54;;;;;;;;;;;10.30;94.60;;;;;;5041225;28;1516;-87
2022/11/24 14:32:22;;;;;;;;;;;10.30;94.60;;;;;;5038986;28;1026;-87
2022/11/24 14:34:50;;;;;;;;;;;10.10;94.20;;;;;;5057046;28;1539;-86
2022/11/24 14:37:18;;;;;;;;;;;10.10;94.40;;;;;;5055432;28;993;-86
2022/11/24 14:39:47;;;;;;;;;;;10.00;94.70;;;;;;5044635;28;1552;-88
2022/11/24 14:42:21;;;;;;;;;;;9.90;95.30;;;;;;5059116;28;1611;-89
2022/11/24 14:44:52;;;;;;;;;;;9.90;95.70;;;;;;5036592;28;1120;-87
2022/11/24 14:47:23;;;;;;;;;;;10.10;95.60;;;;;;5036115;28;1976;-88
2022/11/24 14:50:05;;;;;;;;;;;9.80;96.00;;;;;;5039602;28;1712;-85
2022/11/24 14:52:33;;;;;;;;;;;9.90;95.90;;;;;;5044779;28;1508;-87
2022/11/24 14:55:01;;;;;;;;;;;9.90;95.70;;;;;;5048313;28;1595;-88
2022/11/24 14:57:50;;;;;;;;;;;9.90;95.50;;;;;;5045438;28;1311;-87
2022/11/24 15:00:19;;;;;;;;;;;10.00;95.60;;;;;;5033653;28;1590;-86
2022/11/24 15:02:50;;;;;;;;;;;10.00;95.10;;;;;;5039556;28;1150;-89
2022/11/24 15:05:24;;;;;;;;;;;10.00;95.70;;;;;;5037748;28;1588;-86
2022/11/24 15:08:00;;;;;;;;;;;10.10;95.70;;;;;;5042464;28;1948;-87
2022/11/24 15:10:32;;;;;;;;;;;10.00;95.90;;;;;;5049860;28;1556;-87